Time;durP1;ratioP1;P1;durP2;ratioP2;P2;SDS_P1;SDS_P2;PMS_P1;PMS_P2;Temp;Humidity;BMP_temperature;BMP_pressure;BME280_temperature;BME280_humidity;BME280_pressure;Samples;Min_cycle;Max_cycle;Signal;HPM_P1;HPM_P2
2021/08/09 00:10:36;;;;;;;2.13;0.63;;;;;;;15.41;72.10;99823.28;5990691;23;20012;-76
2021/08/09 00:17:27;;;;;;;2.25;0.77;;;;;;;15.41;73.48;99817.78;6103728;23;20057;-78
2021/08/09 00:27:59;;;;;;;3.25;0.75;;;;;;;15.46;74.02;99823.19;6103571;23;20068;-76
2021/08/09 00:38:29;;;;;;;6.50;1.10;;;;;;;15.19;76.50;99822.16;6231753;22;20028;-78
2021/08/09 00:40:38;;;;;;;3.40;1.23;;;;;;;14.96;76.64;99790.22;6212716;23;20047;-80
2021/08/09 00:43:06;;;;;;;1.25;0.88;;;;;;;15.05;77.14;99810.38;6199130;23;20008;-80
2021/08/09 00:45:42;;;;;;;4.30;0.93;;;;;;;15.05;77.45;99815.88;6227737;23;20319;-81
2021/08/09 00:48:36;;;;;;;0.68;0.40;;;;;;;15.15;76.47;99810.13;6177010;23;20031;-78
2021/08/09 00:51:10;;;;;;;3.65;1.00;;;;;;;15.13;77.10;99817.91;6199021;23;20001;-77
2021/08/09 00:56:58;;;;;;;0.65;0.60;;;;;;;14.98;76.65;99769.50;6225452;23;20099;-80
2021/08/09 01:00:05;;;;;;;2.47;1.33;;;;;;;15.13;76.57;99784.03;6212575;23;20005;-81
2021/08/09 01:03:03;;;;;;;4.50;1.40;;;;;;;15.05;77.02;99763.56;6066215;23;20095;-78
2021/08/09 01:13:29;;;;;;;;;;;;;;;;;;;;;
2021/08/09 01:16:42;;;;;;;2.15;0.77;;;;;;;15.27;76.36;99778.47;6149566;23;20009;-84
2021/08/09 01:19:46;;;;;;;0.85;0.63;;;;;;;15.22;76.48;99770.34;6116789;23;19998;-85
2021/08/09 01:23:08;;;;;;;1.25;0.60;;;;;;;15.32;76.33;99770.09;6116696;23;20005;-84
2021/08/09 01:30:27;;;;;;;;;;;;;;;;;;;;;
2021/08/09 01:33:52;;;;;;;0.68;0.40;;;;;;;15.34;76.33;99762.31;5933097;24;20011;-84
2021/08/09 01:54:37;;;;;;;0.52;0.43;;;;;;;15.28;76.56;99736.03;6177888;23;20026;-81
2021/08/09 02:00:35;;;;;;;3.42;0.65;;;;;;;15.32;76.96;99759.06;6239620;23;20020;-81
2021/08/09 02:04:07;;;;;;;0.98;0.50;;;;;;;15.33;76.60;99766.19;6164869;23;19992;-79
2021/08/09 02:06:44;;;;;;;0.88;0.60;;;;;;;15.14;76.87;99733.31;6111984;22;20039;-77
2021/08/09 02:09:30;;;;;;;1.20;0.25;;;;;;;15.22;76.75;99742.78;6210895;23;20017;-80
2021/08/09 02:12:14;;;;;;;0.30;0.20;;;;;;;15.23;76.50;99744.41;6212294;23;20044;-81
2021/08/09 02:15:15;;;;;;;;;;;;;;;;;;;;;
2021/08/09 02:17:56;;;;;;;0.65;0.32;;;;;;;15.42;76.96;99769.81;6216692;23;20024;-77
2021/08/09 02:20:42;;;;;;;;;;;;;;;;;;;;;
2021/08/09 02:27:45;;;;;;;1.20;0.30;;;;;;;15.49;76.38;99781.22;6104827;23;20022;-79
2021/08/09 02:30:25;;;;;;;5.03;0.30;;;;;;;15.27;76.30;99745.41;5990383;24;20011;-82
2021/08/09 02:33:18;;;;;;;;;;;;;;;;;;;;;
2021/08/09 02:36:02;;;;;;;;;;;;;;;;;;;;;
2021/08/09 02:39:22;;;;;;;;;;;;;;;;;;;;;
2021/08/09 02:52:11;;;;;;;;;;;;;;;;;;;;;
2021/08/09 02:58:11;;;;;;;0.55;0.40;;;;;;;15.16;77.22;99751.16;6223471;23;20012;-77
2021/08/09 03:00:50;;;;;;;0.57;0.28;;;;;;;15.24;77.17;99762.56;6224070;23;20008;-77
2021/08/09 03:03:59;;;;;;;;;;;;;;;;;;;;;
2021/08/09 03:06:36;;;;;;;0.40;0.40;;;;;;;15.26;77.33;99769.41;6217974;22;20036;-79
2021/08/09 03:09:43;;;;;;;0.60;0.30;;;;;;;15.21;77.46;99754.94;6225801;23;20326;-80
2021/08/09 03:12:41;;;;;;;0.30;0.30;;;;;;;15.19;77.54;99772.56;6192674;23;20019;-79
2021/08/09 03:15:20;;;;;;;;;;;;;;;;;;;;;
2021/08/09 03:18:02;;;;;;;;;;;;;;;;;;;;;
2021/08/09 03:21:06;;;;;;;;;;;;;;;;;;;;;
2021/08/09 03:24:02;;;;;;;0.10;0.10;;;;;;;15.13;78.44;99768.31;6218157;23;20035;-78
2021/08/09 03:26:43;;;;;;;;;;;;;;;;;;;;;
2021/08/09 03:49:14;;;;;;;;;;;;;;;;;;;;;
2021/08/09 04:12:56;;;;;;;0.22;0.22;;;;;;;15.04;79.22;99763.88;5977546;23;20022;-79
2021/08/09 04:16:14;;;;;;;0.20;0.20;;;;;;;14.92;79.65;99764.44;5995668;24;20031;-81
2021/08/09 04:19:24;;;;;;;0.38;0.13;;;;;;;15.02;80.17;99769.69;6043212;23;20021;-80
2021/08/09 04:25:28;;;;;;;;;;;;;;;;;;;;;
2021/08/09 04:59:06;;;;;;;1.30;0.70;;;;;;;14.98;80.57;99760.41;6201487;23;20020;-80
2021/08/09 05:01:57;;;;;;;;;;;;;;;;;;;;;
2021/08/09 05:04:44;;;;;;;;;;;;;;;;;;;;;
2021/08/09 05:07:49;;;;;;;;;;;;;;;;;;;;;
2021/08/09 05:10:30;;;;;;;;;;;;;;;;;;;;;
2021/08/09 05:13:27;;;;;;;;;;;;;;;;;;;;;
2021/08/09 05:20:22;;;;;;;;;;;;;;;;;;;;;
2021/08/09 05:23:32;;;;;;;9.90;1.33;;;;;;;14.98;81.08;99760.41;6078984;23;20034;-79
2021/08/09 05:27:14;;;;;;;;;;;;;;;;;;;;;
2021/08/09 05:40:39;;;;;;;2.15;0.60;;;;;;;15.26;80.29;99783.16;6103155;23;20017;-82
2021/08/09 05:44:16;;;;;;;;;;;;;;;;;;;;;
2021/08/09 05:46:53;;;;;;;4.55;1.02;;;;;;;15.03;80.43;99765.81;5988328;24;20047;-80
2021/08/09 05:50:00;;;;;;;1.90;0.82;;;;;;;15.22;80.60;99795.94;5964353;24;20042;-78
2021/08/09 06:21:48;;;;;;;6.95;1.23;;;;;;;15.58;78.92;99819.84;5748288;24;20075;-77
2021/08/09 06:31:23;;;;;;;8.98;1.40;;;;;;;16.08;77.87;99851.94;5779131;24;20116;-79
2021/08/09 06:34:31;;;;;;;;;;;;;;;;;;;;;
2021/08/09 06:44:18;;;;;;;;;;;;;;;;;;;;;
2021/08/09 06:47:26;;;;;;;;;;;;;;;;;;;;;
2021/08/09 06:53:50;;;;;;;1.27;1.17;;;;;;;16.56;75.66;99867.72;5909553;24;20058;-76
2021/08/09 07:11:36;;;;;;;6.03;1.38;;;;;;;16.76;74.32;99879.28;5786365;24;20054;-76
2021/08/09 07:17:58;;;;;;;1.98;0.93;;;;;;;16.91;73.51;99889.13;5770519;24;20050;-75
2021/08/09 07:27:02;;;;;;;3.42;0.95;;;;;;;17.10;71.85;99886.06;5831430;24;20029;-75
2021/08/09 07:29:29;;;;;;;4.18;1.17;;;;;;;17.20;71.61;99902.31;5901429;23;20007;-76
2021/08/09 07:31:55;;;;;;;6.10;1.15;;;;;;;17.22;71.98;99894.50;6054223;23;20010;-77
2021/08/09 07:34:20;;;;;;;3.67;1.08;;;;;;;17.35;71.59;99892.75;6075982;23;20014;-76
2021/08/09 07:36:46;;;;;;;4.85;1.02;;;;;;;17.50;70.95;99888.66;6057708;23;20412;-75
2021/08/09 07:57:13;;;;;;;;;;;;;;;;;;;;;
2021/08/09 08:00:31;;;;;;;2.10;1.00;;;;;;;17.51;70.40;99898.59;5877889;23;20040;-77
2021/08/09 08:04:10;;;;;;;;;;;;;;;;;;;;;
2021/08/09 08:07:16;;;;;;;3.08;1.27;;;;;;;17.77;69.29;99914.34;6015722;23;20047;-78
2021/08/09 08:09:51;;;;;;;3.27;0.77;;;;;;;17.86;69.12;99894.97;6108518;23;20037;-78
2021/08/09 08:12:49;;;;;;;2.47;0.67;;;;;;;18.28;67.87;99917.34;6134281;23;20560;-79
2021/08/09 08:15:14;;;;;;;1.15;0.60;;;;;;;18.40;67.43;99902.81;6130100;23;20457;-77
2021/08/09 08:17:40;;;;;;;3.58;1.05;;;;;;;18.48;66.30;99904.75;6138205;23;20016;-78
2021/08/09 08:20:16;;;;;;;2.92;0.77;;;;;;;18.70;66.83;99911.19;6122386;23;20017;-79
2021/08/09 08:22:55;;;;;;;;;;;;;;;;;;;;;
2021/08/09 08:25:48;;;;;;;2.00;0.77;;;;;;;19.00;63.81;99937.78;6175909;23;20006;-80
2021/08/09 08:28:14;;;;;;;4.63;1.35;;;;;;;18.85;64.25;99924.44;6127940;23;20029;-81
2021/08/09 08:30:44;;;;;;;6.20;0.88;;;;;;;18.67;63.49;99899.63;6148245;23;20012;-82
2021/08/09 08:33:12;;;;;;;0.80;0.50;;;;;;;18.66;63.19;99906.31;6144575;23;20005;-80
2021/08/09 08:35:38;;;;;;;8.00;0.90;;;;;;;18.77;63.13;99937.19;6145844;23;19993;-80
2021/08/09 08:38:27;;;;;;;4.97;0.65;;;;;;;18.76;62.58;99915.38;6142616;23;20033;-82
2021/08/09 08:43:57;;;;;;;2.90;1.15;;;;;;;18.94;62.35;99939.09;6149042;23;20005;-81
2021/08/09 08:46:26;;;;;;;1.33;0.55;;;;;;;18.91;62.64;99936.19;6169240;23;20006;-81
2021/08/09 08:49:07;;;;;;;;;;;;;;;;;;;;;
2021/08/09 08:51:39;;;;;;;0.88;0.45;;;;;;;19.06;62.23;99951.44;6163255;23;20025;-81
2021/08/09 08:54:17;;;;;;;2.17;0.75;;;;;;;18.95;61.90;99924.13;6115979;23;20009;-81
2021/08/09 08:57:25;;;;;;;;;;;;;;;;;;;;;
2021/08/09 09:00:53;;;;;;;;;;;;;;;;;;;;;
2021/08/09 09:03:23;;;;;;;0.60;0.60;;;;;;;19.50;60.61;99954.72;6109234;23;20041;-80
2021/08/09 09:06:42;;;;;;;;;;;;;;;;;;;;;
2021/08/09 09:12:24;;;;;;;0.65;0.40;;;;;;;19.81;59.04;99957.09;6121816;23;20013;-78
2021/08/09 09:15:16;;;;;;;0.70;0.70;;;;;;;20.25;58.53;99972.53;6163967;23;19998;-78
2021/08/09 09:17:44;;;;;;;0.90;0.50;;;;;;;20.50;58.53;99962.28;6134347;23;20328;-78
2021/08/09 09:20:24;;;;;;;0.63;0.60;;;;;;;20.93;55.90;99983.22;6163494;23;20005;-78
2021/08/09 09:23:13;;;;;;;0.88;0.73;;;;;;;20.94;55.14;99976.50;6162595;23;20001;-76
2021/08/09 09:25:39;;;;;;;0.50;0.50;;;;;;;21.19;54.15;99990.41;6159253;23;20362;-77
2021/08/09 09:28:28;;;;;;;2.20;0.40;;;;;;;20.99;52.96;99992.94;6135920;23;20010;-77
2021/08/09 09:31:10;;;;;;;0.52;0.40;;;;;;;20.92;54.26;99984.38;6175647;23;19997;-80
2021/08/09 09:33:35;;;;;;;0.85;0.60;;;;;;;21.05;53.42;99983.19;6146899;23;20053;-77
2021/08/09 09:36:03;;;;;;;0.80;0.57;;;;;;;21.17;54.01;99984.38;6136680;23;20325;-77
2021/08/09 09:38:53;;;;;;;3.22;0.45;;;;;;;21.62;52.97;100000.09;6165886;23;20033;-80
2021/08/09 09:41:31;;;;;;;1.30;0.75;;;;;;;22.24;51.19;99999.88;6135630;23;20006;-78
2021/08/09 09:44:04;;;;;;;5.10;0.50;;;;;;;22.48;49.61;99996.97;6170062;23;20284;-76
2021/08/09 09:46:32;;;;;;;1.08;0.43;;;;;;;22.66;48.25;99991.06;6135132;23;20377;-78
2021/08/09 09:49:16;;;;;;;0.63;0.47;;;;;;;22.77;48.26;99991.38;6158912;23;20014;-76
2021/08/09 09:51:44;;;;;;;0.40;0.22;;;;;;;22.91;48.25;99985.31;6134786;23;20064;-78
2021/08/09 09:54:10;;;;;;;0.65;0.47;;;;;;;23.62;47.36;100010.53;6157457;23;20083;-77
2021/08/09 09:56:40;;;;;;;1.33;0.40;;;;;;;24.31;46.22;99999.63;6162370;23;20372;-77
2021/08/09 09:59:21;;;;;;;;;;;;;;;;;;;;;
2021/08/09 10:01:49;;;;;;;4.45;0.60;;;;;;;25.72;41.21;100011.13;6177270;23;20048;-79
2021/08/09 10:04:25;;;;;;;;;;;;;;;;;;;;;
2021/08/09 10:06:59;;;;;;;0.77;0.55;;;;;;;26.17;40.99;99991.72;6189856;23;20043;-77
2021/08/09 10:09:37;;;;;;;0.68;0.57;;;;;;;26.41;40.08;99995.97;6190992;23;20005;-78
2021/08/09 10:12:27;;;;;;;1.13;0.57;;;;;;;26.40;39.66;99997.16;6138021;23;20335;-77
2021/08/09 10:15:17;;;;;;;0.52;0.52;;;;;;;27.20;37.65;100015.50;6192288;23;20001;-79
2021/08/09 10:17:49;;;;;;;1.50;0.73;;;;;;;27.49;37.93;100010.13;6154882;23;20028;-75
2021/08/09 10:23:13;;;;;;;0.65;0.35;;;;;;;28.32;35.07;100014.13;6170806;23;20020;-76
2021/08/09 10:25:43;;;;;;;1.88;0.60;;;;;;;29.06;33.33;100000.59;6165212;23;20045;-77
2021/08/09 10:28:12;;;;;;;0.30;0.30;;;;;;;29.87;33.39;99999.25;6165340;23;20041;-76
2021/08/09 10:34:37;;;;;;;0.40;0.40;;;;;;;31.04;29.79;100013.06;6071819;23;20093;-74
2021/08/09 10:38:21;;;;;;;;;;;;;;;;;;;;;
2021/08/09 10:45:17;;;;;;;0.70;0.40;;;;;;;31.23;29.61;100019.38;6042536;23;20007;-76
2021/08/09 10:48:01;;;;;;;1.10;0.60;;;;;;;31.41;27.70;100010.69;5988976;23;20011;-75
2021/08/09 10:51:05;;;;;;;;;;;;;;;;;;;;;
2021/08/09 10:53:46;;;;;;;;;;;;;;;;;;;;;
2021/08/09 11:04:01;;;;;;;0.95;0.85;;;;;;;30.56;27.64;100011.00;5919097;24;20074;-75
2021/08/09 11:06:54;;;;;;;0.40;0.40;;;;;;;30.49;27.12;100011.03;5928255;24;20365;-76
2021/08/09 11:09:54;;;;;;;0.40;0.30;;;;;;;30.06;27.30;100012.84;5936777;23;20021;-74
2021/08/09 11:12:28;;;;;;;0.93;0.35;;;;;;;30.11;29.06;100012.44;6019204;23;20011;-75
2021/08/09 11:15:18;;;;;;;4.00;0.30;;;;;;;30.96;27.47;100017.94;6061922;23;20065;-74
2021/08/09 11:17:57;;;;;;;0.82;0.60;;;;;;;30.09;27.58;100009.22;6135074;23;20425;-74
2021/08/09 11:20:25;;;;;;;0.50;0.50;;;;;;;28.86;29.16;100013.47;6130974;23;20097;-75
2021/08/09 11:23:07;;;;;;;0.60;0.50;;;;;;;27.86;30.97;100020.34;6134583;23;20009;-74
2021/08/09 11:25:48;;;;;;;0.70;0.30;;;;;;;27.72;31.73;100011.88;6159965;23;20063;-74
2021/08/09 11:28:23;;;;;;;0.30;0.30;;;;;;;28.29;31.88;100012.13;6135866;23;20005;-75
2021/08/09 11:30:56;;;;;;;0.80;0.40;;;;;;;28.60;31.80;100017.41;6131191;23;20013;-75
2021/08/09 11:33:42;;;;;;;12.20;0.82;;;;;;;28.89;30.85;100021.09;6132636;23;20024;-75
2021/08/09 11:36:15;;;;;;;0.75;0.70;;;;;;;28.79;31.92;100011.44;6159071;23;20004;-74
2021/08/09 11:39:05;;;;;;;1.88;0.57;;;;;;;28.44;33.04;100024.19;6158542;23;20005;-75
2021/08/09 11:41:31;;;;;;;0.73;0.68;;;;;;;27.87;34.43;100002.31;6103384;23;20020;-74
2021/08/09 11:44:12;;;;;;;3.80;0.70;;;;;;;27.92;35.21;100004.75;6106099;23;20005;-74
2021/08/09 11:53:33;;;;;;;;;;;;;;;;;;;;;
2021/08/09 12:03:35;;;;;;;0.40;0.40;;;;;;;31.82;26.67;100050.25;6189481;23;20021;-75
2021/08/09 12:06:49;;;;;;;;;;;;;;;;;;;;;
2021/08/09 12:09:52;;;;;;;3.25;0.57;;;;;;;32.11;26.34;100037.78;6194428;23;20731;-77
2021/08/09 12:12:38;;;;;;;1.65;0.77;;;;;;;31.46;26.54;100035.69;6197713;23;20005;-77
2021/08/09 12:15:06;;;;;;;0.90;0.60;;;;;;;30.24;27.78;100037.34;6198906;23;20052;-78
2021/08/09 12:18:30;;;;;;;1.02;0.90;;;;;;;29.34;29.72;100029.94;6202257;23;20009;-79
2021/08/09 12:21:20;;;;;;;2.10;0.80;;;;;;;28.31;30.69;100037.03;6189331;23;20005;-80
2021/08/09 12:24:21;;;;;;;1.20;0.73;;;;;;;27.59;32.99;100045.09;6198397;23;20000;-79
2021/08/09 12:27:20;;;;;;;1.40;1.20;;;;;;;26.53;35.53;100011.69;6113155;23;20005;-81
2021/08/09 12:30:30;;;;;;;1.15;1.05;;;;;;;26.23;37.55;100043.41;6175013;23;20008;-80
2021/08/09 12:33:33;;;;;;;;;;;;;;;;;;;;;
2021/08/09 12:36:22;;;;;;;1.40;0.93;;;;;;;27.90;37.17;100028.81;6077623;23;20018;-77
2021/08/09 12:39:21;;;;;;;2.17;1.48;;;;;;;28.59;34.46;100067.25;6079334;23;20030;-78
2021/08/09 12:42:13;;;;;;;1.88;1.52;;;;;;;29.25;34.00;100043.66;6076833;23;20383;-79
2021/08/09 12:45:32;;;;;;;;;;;;;;;;;;;;;
2021/08/09 12:48:36;;;;;;;1.83;0.98;;;;;;;28.35;34.14;100058.31;6117041;23;20018;-78
2021/08/09 12:53:55;;;;;;;3.40;1.92;;;;;;;25.81;47.66;100038.06;6104468;23;20015;-79
2021/08/09 13:05:13;;;;;;;1.67;1.45;;;;;;;25.46;52.08;100039.94;5869215;24;20054;-80
2021/08/09 13:10:37;;;;;;;2.05;1.30;;;;;;;25.08;47.54;100033.34;5818426;24;20035;-79
2021/08/09 13:13:29;;;;;;;2.60;1.65;;;;;;;24.71;47.70;100050.69;5968466;24;20015;-79
2021/08/09 13:16:03;;;;;;;3.65;1.30;;;;;;;24.29;47.42;100029.09;5994453;24;20018;-80
2021/08/09 13:18:40;;;;;;;2.90;1.30;;;;;;;24.72;48.56;100024.31;5992633;24;20008;-80
2021/08/09 13:21:14;;;;;;;2.92;1.40;;;;;;;25.62;46.17;100053.78;5990596;24;20076;-79
2021/08/09 13:23:52;;;;;;;1.60;1.27;;;;;;;25.50;44.33;100024.03;6000752;23;20019;-77
2021/08/09 13:26:18;;;;;;;2.13;1.10;;;;;;;25.47;45.57;100033.19;6056582;23;20446;-78
2021/08/09 13:28:47;;;;;;;6.25;1.85;;;;;;;25.90;43.77;100053.38;6088473;23;20014;-84
2021/08/09 13:31:13;;;;;;;1.13;0.95;;;;;;;26.08;42.66;100052.81;6143530;23;20058;-77
2021/08/09 13:33:39;;;;;;;6.25;1.65;;;;;;;25.88;42.57;100068.97;6166036;23;20024;-78
2021/08/09 13:36:06;;;;;;;1.40;1.30;;;;;;;25.33;43.07;100049.75;6194557;23;20019;-78
2021/08/09 13:38:32;;;;;;;2.10;1.60;;;;;;;24.83;42.74;100042.09;6145314;23;20013;-79
2021/08/09 13:41:03;;;;;;;1.48;1.38;;;;;;;24.74;43.85;100045.16;6142815;23;20005;-78
2021/08/09 13:43:36;;;;;;;2.05;1.20;;;;;;;25.03;43.92;100056.03;6196440;23;20510;-78
2021/08/09 13:49:37;;;;;;;4.28;1.35;;;;;;;25.81;41.31;100040.84;5973180;23;20099;-77
2021/08/09 13:52:53;;;;;;;;;;;;;;;;;;;;;
2021/08/09 13:55:20;;;;;;;3.90;1.45;;;;;;;27.84;35.56;100039.63;6036053;23;20015;-79
2021/08/09 14:00:58;;;;;;;1.60;1.40;;;;;;;27.36;37.11;100056.56;6119391;23;20009;-77
2021/08/09 14:03:29;;;;;;;2.67;1.58;;;;;;;27.42;37.08;100032.53;6137353;23;20329;-77
2021/08/09 14:06:44;;;;;;;1.77;1.45;;;;;;;27.81;35.37;100046.03;6140237;23;20006;-78
2021/08/09 14:12:33;;;;;;;1.27;1.17;;;;;;;28.41;33.62;100049.50;6148080;23;20014;-79
2021/08/09 14:15:20;;;;;;;;;;;;;;;;;;;;;
2021/08/09 14:17:55;;;;;;;0.63;0.63;;;;;;;26.01;36.79;100025.53;6168298;23;20029;-79
2021/08/09 14:20:31;;;;;;;;;;;;;;;;;;;;;
2021/08/09 14:23:16;;;;;;;2.22;1.65;;;;;;;24.04;51.72;100057.31;6065254;23;20376;-78
2021/08/09 14:25:54;;;;;;;1.38;1.27;;;;;;;22.32;56.88;100076.94;6114290;23;20021;-79
2021/08/09 14:28:25;;;;;;;2.55;1.88;;;;;;;21.07;61.08;100077.38;6140877;23;19997;-76
2021/08/09 14:30:55;;;;;;;1.58;1.48;;;;;;;20.19;63.38;100082.97;6165818;23;20008;-76
2021/08/09 14:33:31;;;;;;;1.75;1.65;;;;;;;19.53;65.39;100040.81;6141745;23;20006;-76
2021/08/09 14:35:57;;;;;;;2.47;2.03;;;;;;;19.38;67.88;100068.31;6139740;23;20073;-76
2021/08/09 14:38:25;;;;;;;1.55;1.45;;;;;;;19.23;68.97;100056.66;6167395;23;20432;-75
2021/08/09 14:40:51;;;;;;;1.80;1.70;;;;;;;19.58;67.94;100070.34;6093743;23;20010;-76
2021/08/09 14:43:25;;;;;;;2.30;2.10;;;;;;;19.86;64.99;100061.53;6166782;23;20360;-75
2021/08/09 14:45:51;;;;;;;1.40;1.20;;;;;;;20.11;63.13;100062.47;6140779;23;20088;-75
2021/08/09 14:48:26;;;;;;;2.20;1.67;;;;;;;20.23;62.45;100076.41;6155356;23;20032;-77
2021/08/09 14:50:56;;;;;;;8.40;2.35;;;;;;;20.36;61.22;100074.50;6170050;23;20060;-76
2021/08/09 14:53:22;;;;;;;1.55;1.40;;;;;;;20.43;61.00;100073.13;6143191;23;20147;-77
2021/08/09 14:55:47;;;;;;;7.13;1.58;;;;;;;20.45;60.57;100087.50;6139284;23;20005;-76
2021/08/09 14:58:13;;;;;;;1.20;1.10;;;;;;;20.43;60.87;100082.28;6140929;23;20013;-75
2021/08/09 15:00:41;;;;;;;2.58;1.30;;;;;;;20.38;60.23;100083.31;6165852;23;20005;-74
2021/08/09 15:03:09;;;;;;;1.98;1.20;;;;;;;20.48;59.64;100087.63;6166982;23;20072;-77
2021/08/09 15:05:35;;;;;;;1.67;1.38;;;;;;;20.52;59.24;100068.31;6140459;23;20013;-77
2021/08/09 15:08:01;;;;;;;1.55;1.30;;;;;;;20.53;58.86;100067.97;6143157;23;20454;-75
2021/08/09 15:10:32;;;;;;;2.60;1.15;;;;;;;20.56;58.36;100067.28;6196338;23;20067;-76
2021/08/09 15:12:57;;;;;;;2.33;1.40;;;;;;;20.69;57.62;100065.38;6155149;23;20005;-77
2021/08/09 15:15:25;;;;;;;2.45;1.52;;;;;;;20.72;56.23;100048.03;6142882;23;20335;-75
2021/08/09 15:17:51;;;;;;;0.98;0.95;;;;;;;20.85;56.98;100050.81;6115951;23;20013;-74
2021/08/09 15:20:16;;;;;;;1.38;1.27;;;;;;;20.92;56.33;100049.13;6141769;23;20044;-75
2021/08/09 15:22:42;;;;;;;1.30;1.05;;;;;;;21.21;56.08;100063.94;6140257;23;20012;-76
2021/08/09 15:25:11;;;;;;;2.70;1.17;;;;;;;21.35;55.47;100052.50;6141731;23;20013;-75
2021/08/09 15:27:37;;;;;;;4.18;1.58;;;;;;;21.67;55.80;100063.84;6167854;23;20005;-75
2021/08/09 15:30:03;;;;;;;5.85;1.63;;;;;;;21.89;54.87;100058.91;6168461;23;20012;-75
2021/08/09 15:32:29;;;;;;;2.53;1.58;;;;;;;22.30;53.85;100068.09;6144043;23;20013;-74
2021/08/09 15:34:56;;;;;;;1.63;1.52;;;;;;;22.78;52.62;100076.56;6168372;23;20005;-74
2021/08/09 15:37:22;;;;;;;1.58;1.40;;;;;;;22.93;51.76;100077.78;6143390;23;20028;-73
2021/08/09 15:39:47;;;;;;;0.93;0.93;;;;;;;22.96;51.92;100065.91;6119044;23;20013;-76
2021/08/09 15:42:13;;;;;;;2.85;1.52;;;;;;;22.98;51.22;100060.78;6168221;23;20009;-76
2021/08/09 15:44:41;;;;;;;1.27;1.17;;;;;;;22.89;50.57;100071.31;6168340;23;20013;-76
2021/08/09 15:47:07;;;;;;;1.70;1.40;;;;;;;22.88;50.54;100069.66;6168708;23;20019;-76
2021/08/09 15:49:33;;;;;;;1.88;1.30;;;;;;;23.01;49.98;100074.00;6167948;23;20095;-74
2021/08/09 15:51:59;;;;;;;1.00;1.00;;;;;;;23.20;49.45;100080.88;6118029;23;20020;-75
2021/08/09 15:54:25;;;;;;;5.43;1.52;;;;;;;23.34;49.00;100072.88;6193293;23;20083;-75
2021/08/09 15:56:55;;;;;;;1.77;1.27;;;;;;;23.12;49.07;100089.06;6142427;23;20125;-76
2021/08/09 15:59:21;;;;;;;5.05;1.13;;;;;;;22.69;49.38;100090.66;6168326;23;20040;-76
2021/08/09 16:01:48;;;;;;;4.13;1.85;;;;;;;22.21;51.04;100089.69;6193138;23;20008;-73
2021/08/09 16:04:15;;;;;;;4.07;1.52;;;;;;;22.02;51.69;100099.50;6193459;23;20046;-76
2021/08/09 16:10:09;;;;;;;1.90;1.63;;;;;;;21.64;54.29;100089.59;6192019;23;19989;-74
2021/08/09 16:12:37;;;;;;;2.00;1.70;;;;;;;21.56;54.79;100090.53;6136672;23;20009;-73
2021/08/09 16:15:28;;;;;;;4.55;2.22;;;;;;;21.76;54.78;100095.13;6146224;23;20159;-76
2021/08/09 16:21:23;;;;;;;4.07;2.30;;;;;;;21.81;55.12;100087.72;6064640;23;20021;-74
2021/08/09 16:23:54;;;;;;;6.53;2.10;;;;;;;21.64;55.38;100086.81;6086523;23;19987;-77
2021/08/09 16:27:00;;;;;;;6.47;2.47;;;;;;;21.54;55.98;100090.06;6092501;23;20022;-78
2021/08/09 16:37:07;;;;;;;3.95;1.70;;;;;;;21.26;56.95;100068.47;5940802;23;20020;-75
2021/08/09 16:43:43;;;;;;;;;;;;;;;;;;;;;
2021/08/09 16:46:51;;;;;;;;;;;;;;;;;;;;;
2021/08/09 16:49:24;;;;;;;6.28;1.88;;;;;;;23.02;53.89;100067.25;6080572;23;20477;-78
2021/08/09 16:52:26;;;;;;;4.53;2.13;;;;;;;24.18;50.54;100085.56;6129773;23;20008;-77
2021/08/09 16:54:54;;;;;;;4.78;1.98;;;;;;;24.82;47.43;100090.81;6150938;23;19997;-75
2021/08/09 16:57:59;;;;;;;5.05;1.80;;;;;;;24.68;46.60;100062.63;6194318;23;20047;-76
2021/08/09 17:01:19;;;;;;;7.32;2.40;;;;;;;24.17;46.74;100086.72;6144828;23;20005;-74
2021/08/09 17:04:22;;;;;;;4.53;2.47;;;;;;;23.39;49.48;100094.88;6163442;23;20039;-79
2021/08/09 17:06:53;;;;;;;4.90;2.15;;;;;;;22.83;50.65;100084.69;6166440;23;20012;-75
2021/08/09 17:13:48;;;;;;;1.80;1.67;;;;;;;21.74;53.34;100091.91;6102877;23;20014;-75
2021/08/09 17:16:33;;;;;;;2.85;1.92;;;;;;;21.17;54.99;100098.34;6046203;23;20038;-75
2021/08/09 17:19:01;;;;;;;5.55;1.80;;;;;;;20.73;56.35;100083.00;6053616;23;20017;-77
2021/08/09 17:21:44;;;;;;;1.98;1.80;;;;;;;20.47;56.87;100069.34;6104164;23;20015;-74
2021/08/09 17:24:21;;;;;;;2.67;1.55;;;;;;;20.36;57.51;100082.03;6170617;23;20012;-75
2021/08/09 17:31:07;;;;;;;3.25;2.22;;;;;;;20.03;58.76;100094.69;6047720;23;20015;-74
2021/08/09 17:33:37;;;;;;;3.50;1.73;;;;;;;19.71;59.65;100077.59;5995247;23;20003;-73
2021/08/09 17:36:05;;;;;;;4.45;2.42;;;;;;;19.63;59.86;100086.75;6063470;23;20074;-74
2021/08/09 17:39:06;;;;;;;4.57;2.05;;;;;;;19.70;60.38;100097.34;6084614;23;20014;-74
2021/08/09 17:41:34;;;;;;;5.35;2.00;;;;;;;20.00;60.11;100091.78;6131740;23;20005;-75
2021/08/09 17:44:06;;;;;;;3.08;2.17;;;;;;;20.16;60.03;100097.53;6168986;23;20013;-75
2021/08/09 17:46:49;;;;;;;5.80;2.17;;;;;;;20.44;60.54;100077.53;6169099;23;20008;-76
2021/08/09 17:49:21;;;;;;;4.18;1.77;;;;;;;21.49;58.62;100095.81;6170005;23;20036;-77
2021/08/09 17:52:22;;;;;;;5.53;2.40;;;;;;;22.11;54.77;100100.16;6143039;23;20009;-77
2021/08/09 17:55:51;;;;;;;;;;;;;;;;;;;;;
2021/08/09 18:05:49;;;;;;;3.30;1.95;;;;;;;20.70;56.60;100096.75;6071455;23;20021;-76
2021/08/09 18:08:21;;;;;;;4.95;2.00;;;;;;;20.20;57.71;100068.75;5973803;24;20012;-76
2021/08/09 18:18:37;;;;;;;;;;;;;;;;;;;;;
2021/08/09 18:21:54;;;;;;;4.85;2.78;;;;;;;19.60;60.24;100081.91;5959665;24;20040;-75
2021/08/09 18:24:45;;;;;;;;;;;;;;;;;;;;;
2021/08/09 18:34:05;;;;;;;5.32;2.60;;;;;;;19.29;62.53;100104.38;5909789;24;20468;-74
2021/08/09 18:36:33;;;;;;;6.53;2.30;;;;;;;19.10;62.85;100089.00;5917440;24;20073;-74
2021/08/09 18:39:21;;;;;;;3.88;2.30;;;;;;;19.05;63.52;100093.91;5896842;24;20013;-79
2021/08/09 18:45:12;;;;;;;7.68;2.72;;;;;;;18.67;64.11;100095.41;5890961;24;20058;-79
2021/08/09 18:48:24;;;;;;;6.40;2.90;;;;;;;18.72;65.00;100109.13;5898569;24;20012;-82
2021/08/09 18:50:53;;;;;;;8.05;2.92;;;;;;;18.53;65.56;100106.69;5899919;24;20005;-78
2021/08/09 18:53:30;;;;;;;4.35;2.85;;;;;;;18.55;65.26;100115.47;5970148;23;20059;-80
2021/08/09 18:56:33;;;;;;;3.47;1.83;;;;;;;18.52;65.83;100118.91;6189818;23;20040;-79
2021/08/09 19:00:22;;;;;;;;;;;;;;;;;;;;;
2021/08/09 19:02:59;;;;;;;;;;;;;;;;;;;;;
2021/08/09 19:05:31;;;;;;;3.80;2.10;;;;;;;18.23;66.56;100125.09;6049503;23;20067;-74
2021/08/09 19:08:24;;;;;;;3.47;2.63;;;;;;;18.14;66.83;100108.50;6083813;23;20015;-75
2021/08/09 19:11:12;;;;;;;6.10;2.97;;;;;;;18.00;66.74;100094.00;6083366;23;20003;-77
2021/08/09 19:14:45;;;;;;;;;;;;;;;;;;;;;
2021/08/09 19:17:19;;;;;;;5.57;2.38;;;;;;;17.84;67.48;100113.78;6072916;23;20107;-74
2021/08/09 19:19:44;;;;;;;4.85;2.10;;;;;;;17.75;67.92;100101.91;6051979;23;20245;-77
2021/08/09 19:22:13;;;;;;;10.20;2.65;;;;;;;17.91;68.10;100130.75;6054595;23;20477;-74
2021/08/09 19:24:58;;;;;;;5.28;2.45;;;;;;;17.83;67.37;100123.22;6029016;23;20019;-75
2021/08/09 19:28:30;;;;;;;5.63;2.80;;;;;;;17.80;67.90;100112.81;6069540;23;20009;-80
2021/08/09 19:30:59;;;;;;;4.57;2.35;;;;;;;17.82;67.97;100127.13;6097109;23;20052;-79
2021/08/09 19:34:00;;;;;;;;;;;;;;;;;;;;;
2021/08/09 19:36:34;;;;;;;3.90;1.95;;;;;;;17.80;68.18;100135.75;6198578;23;20033;-78
2021/08/09 19:39:17;;;;;;;;;;;;;;;;;;;;;
2021/08/09 19:42:02;;;;;;;;;;;;;;;;;;;;;
2021/08/09 22:19:09;;;;;;;3.67;1.45;;;;;;;15.74;76.01;100222.72;6185997;23;20021;-74
2021/08/09 22:21:34;;;;;;;2.60;1.67;;;;;;;15.73;76.12;100226.59;6197568;23;20012;-73
2021/08/09 22:24:02;;;;;;;3.20;1.60;;;;;;;15.67;75.88;100217.59;6201569;23;20013;-73
2021/08/09 22:26:29;;;;;;;6.60;1.75;;;;;;;15.56;76.18;100215.34;6151967;23;20021;-73
2021/08/09 22:28:54;;;;;;;7.15;1.95;;;;;;;15.54;76.14;100219.22;6168819;23;19989;-73
2021/08/09 22:31:23;;;;;;;1.67;1.42;;;;;;;15.52;76.06;100232.50;6145845;23;20040;-76
2021/08/09 22:33:56;;;;;;;2.22;1.70;;;;;;;15.46;76.38;100228.22;6119583;23;20080;-76
2021/08/09 22:36:27;;;;;;;3.22;2.28;;;;;;;15.41;76.23;100224.72;6136177;23;20132;-77
2021/08/09 22:39:17;;;;;;;7.50;1.90;;;;;;;15.42;76.57;100232.69;6169077;23;20024;-77
2021/08/09 22:42:08;;;;;;;3.58;1.77;;;;;;;15.35;76.20;100232.25;6162685;23;20007;-75
2021/08/09 22:44:34;;;;;;;3.53;2.10;;;;;;;15.28;76.56;100227.13;6193725;23;20436;-76
2021/08/09 22:47:22;;;;;;;3.45;1.55;;;;;;;15.27;77.03;100225.50;6117610;23;20491;-76
2021/08/09 23:06:34;;;;;;;2.28;1.13;;;;;;;15.05;77.01;100217.88;5987367;24;20027;-79
2021/08/09 23:10:06;;;;;;;;;;;;;;;;;;;;;